sensor_id;sensor_type;location;lat;lon;timestamp;P1;durP1;ratioP1;P2;durP2;ratioP2
9080;SDS011;13509;50.760;6.080;2022-12-10T00:00:22;58.70;;;24.17;;
9080;SDS011;13509;50.760;6.080;2022-12-10T00:02:50;56.33;;;26.73;;
9080;SDS011;13509;50.760;6.080;2022-12-10T00:05:18;59.60;;;25.53;;
9080;SDS011;13509;50.760;6.080;2022-12-10T00:07:46;59.13;;;25.80;;
9080;SDS011;13509;50.760;6.080;2022-12-10T00:10:15;54.30;;;24.83;;
9080;SDS011;13509;50.760;6.080;2022-12-10T00:12:43;54.00;;;23.80;;
9080;SDS011;13509;50.760;6.080;2022-12-10T00:15:11;56.03;;;25.00;;
9080;SDS011;13509;50.760;6.080;2022-12-10T00:17:41;51.20;;;25.47;;
9080;SDS011;13509;50.760;6.080;2022-12-10T00:20:09;52.53;;;24.43;;
9080;SDS011;13509;50.760;6.080;2022-12-10T00:22:38;50.20;;;24.00;;
9080;SDS011;13509;50.760;6.080;2022-12-10T00:25:06;47.77;;;23.03;;
9080;SDS011;13509;50.760;6.080;2022-12-10T00:27:35;53.20;;;24.57;;
9080;SDS011;13509;50.760;6.080;2022-12-10T00:30:03;54.00;;;24.87;;
9080;SDS011;13509;50.760;6.080;2022-12-10T00:32:32;54.97;;;24.43;;
9080;SDS011;13509;50.760;6.080;2022-12-10T00:35:01;57.03;;;24.47;;
9080;SDS011;13509;50.760;6.080;2022-12-10T00:37:30;50.97;;;22.53;;
9080;SDS011;13509;50.760;6.080;2022-12-10T00:39:58;51.73;;;23.87;;
9080;SDS011;13509;50.760;6.080;2022-12-10T00:42:26;51.40;;;24.03;;
9080;SDS011;13509;50.760;6.080;2022-12-10T00:44:54;53.50;;;23.60;;
9080;SDS011;13509;50.760;6.080;2022-12-10T00:47:23;60.03;;;25.63;;
9080;SDS011;13509;50.760;6.080;2022-12-10T00:49:51;50.17;;;23.53;;
9080;SDS011;13509;50.760;6.080;2022-12-10T00:52:20;52.67;;;24.33;;
9080;SDS011;13509;50.760;6.080;2022-12-10T00:54:49;55.13;;;24.60;;
9080;SDS011;13509;50.760;6.080;2022-12-10T00:57:17;55.43;;;25.07;;
9080;SDS011;13509;50.760;6.080;2022-12-10T00:59:45;53.70;;;24.27;;
9080;SDS011;13509;50.760;6.080;2022-12-10T01:02:13;54.07;;;24.83;;
9080;SDS011;13509;50.760;6.080;2022-12-10T01:04:41;51.60;;;22.90;;
9080;SDS011;13509;50.760;6.080;2022-12-10T01:07:10;51.57;;;23.37;;
9080;SDS011;13509;50.760;6.080;2022-12-10T01:09:39;60.40;;;24.37;;
9080;SDS011;13509;50.760;6.080;2022-12-10T01:12:08;61.83;;;25.10;;
9080;SDS011;13509;50.760;6.080;2022-12-10T01:14:36;61.23;;;24.37;;
9080;SDS011;13509;50.760;6.080;2022-12-10T01:17:04;60.23;;;25.07;;
9080;SDS011;13509;50.760;6.080;2022-12-10T01:19:33;51.17;;;23.50;;
9080;SDS011;13509;50.760;6.080;2022-12-10T01:22:01;61.13;;;23.77;;
9080;SDS011;13509;50.760;6.080;2022-12-10T01:24:30;62.80;;;24.10;;
9080;SDS011;13509;50.760;6.080;2022-12-10T01:27:00;66.53;;;24.23;;
9080;SDS011;13509;50.760;6.080;2022-12-10T01:29:28;71.00;;;25.57;;
9080;SDS011;13509;50.760;6.080;2022-12-10T01:31:56;61.93;;;25.97;;
9080;SDS011;13509;50.760;6.080;2022-12-10T01:34:25;58.43;;;24.57;;
9080;SDS011;13509;50.760;6.080;2022-12-10T01:36:54;64.97;;;25.60;;
9080;SDS011;13509;50.760;6.080;2022-12-10T01:39:22;59.17;;;23.53;;
9080;SDS011;13509;50.760;6.080;2022-12-10T01:41:51;64.63;;;26.43;;
9080;SDS011;13509;50.760;6.080;2022-12-10T01:47:08;59.13;;;23.20;;
9080;SDS011;13509;50.760;6.080;2022-12-10T01:49:38;61.50;;;22.40;;
9080;SDS011;13509;50.760;6.080;2022-12-10T01:52:08;62.40;;;22.97;;
9080;SDS011;13509;50.760;6.080;2022-12-10T01:54:40;60.13;;;23.27;;
9080;SDS011;13509;50.760;6.080;2022-12-10T01:57:09;66.93;;;22.37;;
9080;SDS011;13509;50.760;6.080;2022-12-10T01:59:38;60.23;;;22.73;;
9080;SDS011;13509;50.760;6.080;2022-12-10T02:02:10;54.30;;;21.60;;
9080;SDS011;13509;50.760;6.080;2022-12-10T02:04:41;64.77;;;23.27;;
9080;SDS011;13509;50.760;6.080;2022-12-10T02:07:15;49.50;;;22.67;;
9080;SDS011;13509;50.760;6.080;2022-12-10T02:09:48;47.87;;;21.93;;
9080;SDS011;13509;50.760;6.080;2022-12-10T02:12:20;47.87;;;21.13;;
9080;SDS011;13509;50.760;6.080;2022-12-10T02:14:52;49.27;;;21.97;;
9080;SDS011;13509;50.760;6.080;2022-12-10T02:17:24;53.53;;;21.87;;
9080;SDS011;13509;50.760;6.080;2022-12-10T02:20:01;51.77;;;22.70;;
9080;SDS011;13509;50.760;6.080;2022-12-10T02:22:31;53.10;;;21.27;;
9080;SDS011;13509;50.760;6.080;2022-12-10T02:25:00;51.97;;;21.57;;
9080;SDS011;13509;50.760;6.080;2022-12-10T02:27:31;50.07;;;22.13;;
9080;SDS011;13509;50.760;6.080;2022-12-10T02:30:02;51.87;;;21.67;;
9080;SDS011;13509;50.760;6.080;2022-12-10T02:32:31;48.77;;;22.57;;
9080;SDS011;13509;50.760;6.080;2022-12-10T02:35:01;54.63;;;23.73;;
9080;SDS011;13509;50.760;6.080;2022-12-10T02:37:34;51.13;;;22.40;;
9080;SDS011;13509;50.760;6.080;2022-12-10T02:40:05;50.47;;;22.13;;
9080;SDS011;13509;50.760;6.080;2022-12-10T02:42:35;46.83;;;21.50;;
9080;SDS011;13509;50.760;6.080;2022-12-10T02:45:07;46.23;;;21.60;;
9080;SDS011;13509;50.760;6.080;2022-12-10T02:47:36;49.30;;;22.27;;
9080;SDS011;13509;50.760;6.080;2022-12-10T02:50:05;53.40;;;23.73;;
9080;SDS011;13509;50.760;6.080;2022-12-10T02:52:34;50.57;;;22.07;;
9080;SDS011;13509;50.760;6.080;2022-12-10T02:55:02;48.97;;;22.23;;
9080;SDS011;13509;50.760;6.080;2022-12-10T02:57:33;48.37;;;21.47;;
9080;SDS011;13509;50.760;6.080;2022-12-10T03:00:09;53.17;;;21.93;;
9080;SDS011;13509;50.760;6.080;2022-12-10T03:02:44;52.87;;;21.37;;
9080;SDS011;13509;50.760;6.080;2022-12-10T03:05:17;48.43;;;21.93;;
9080;SDS011;13509;50.760;6.080;2022-12-10T03:07:48;55.83;;;23.37;;
9080;SDS011;13509;50.760;6.080;2022-12-10T03:10:21;49.20;;;21.90;;
9080;SDS011;13509;50.760;6.080;2022-12-10T03:12:53;49.00;;;22.23;;
9080;SDS011;13509;50.760;6.080;2022-12-10T03:15:24;46.43;;;21.57;;
9080;SDS011;13509;50.760;6.080;2022-12-10T03:17:53;50.00;;;22.07;;
9080;SDS011;13509;50.760;6.080;2022-12-10T03:20:22;56.37;;;22.70;;
9080;SDS011;13509;50.760;6.080;2022-12-10T03:22:50;52.20;;;22.53;;
9080;SDS011;13509;50.760;6.080;2022-12-10T03:25:20;56.60;;;22.17;;
9080;SDS011;13509;50.760;6.080;2022-12-10T03:27:49;49.80;;;22.17;;
9080;SDS011;13509;50.760;6.080;2022-12-10T03:30:19;48.07;;;21.67;;
9080;SDS011;13509;50.760;6.080;2022-12-10T03:32:48;50.83;;;22.20;;
9080;SDS011;13509;50.760;6.080;2022-12-10T03:35:17;48.90;;;21.10;;
9080;SDS011;13509;50.760;6.080;2022-12-10T03:37:46;45.73;;;21.77;;
9080;SDS011;13509;50.760;6.080;2022-12-10T03:40:15;53.03;;;22.50;;
9080;SDS011;13509;50.760;6.080;2022-12-10T03:42:44;49.20;;;21.57;;
9080;SDS011;13509;50.760;6.080;2022-12-10T03:45:13;55.30;;;22.43;;
9080;SDS011;13509;50.760;6.080;2022-12-10T03:47:41;53.07;;;21.67;;
9080;SDS011;13509;50.760;6.080;2022-12-10T03:50:11;48.43;;;22.43;;
9080;SDS011;13509;50.760;6.080;2022-12-10T03:52:39;48.97;;;22.87;;
9080;SDS011;13509;50.760;6.080;2022-12-10T03:55:08;56.23;;;22.00;;
9080;SDS011;13509;50.760;6.080;2022-12-10T03:57:36;52.33;;;22.50;;
9080;SDS011;13509;50.760;6.080;2022-12-10T04:00:05;50.33;;;22.37;;
9080;SDS011;13509;50.760;6.080;2022-12-10T04:02:34;50.80;;;22.10;;
9080;SDS011;13509;50.760;6.080;2022-12-10T04:05:02;46.53;;;20.17;;
9080;SDS011;13509;50.760;6.080;2022-12-10T04:07:34;50.40;;;23.03;;
9080;SDS011;13509;50.760;6.080;2022-12-10T04:10:03;49.30;;;21.83;;
9080;SDS011;13509;50.760;6.080;2022-12-10T04:12:32;48.50;;;22.40;;
9080;SDS011;13509;50.760;6.080;2022-12-10T04:15:00;49.63;;;21.83;;
9080;SDS011;13509;50.760;6.080;2022-12-10T04:17:46;54.00;;;23.33;;
9080;SDS011;13509;50.760;6.080;2022-12-10T04:20:14;52.33;;;21.40;;
9080;SDS011;13509;50.760;6.080;2022-12-10T04:23:01;47.47;;;20.87;;
9080;SDS011;13509;50.760;6.080;2022-12-10T04:25:47;49.13;;;21.93;;
9080;SDS011;13509;50.760;6.080;2022-12-10T04:28:33;52.67;;;22.50;;
9080;SDS011;13509;50.760;6.080;2022-12-10T04:31:01;51.93;;;21.83;;
9080;SDS011;13509;50.760;6.080;2022-12-10T04:33:29;48.17;;;22.23;;
9080;SDS011;13509;50.760;6.080;2022-12-10T04:35:57;45.17;;;20.70;;
9080;SDS011;13509;50.760;6.080;2022-12-10T04:38:27;43.07;;;20.40;;
9080;SDS011;13509;50.760;6.080;2022-12-10T04:40:55;49.77;;;21.83;;
9080;SDS011;13509;50.760;6.080;2022-12-10T04:43:23;43.70;;;20.77;;
9080;SDS011;13509;50.760;6.080;2022-12-10T04:45:54;43.87;;;20.87;;
9080;SDS011;13509;50.760;6.080;2022-12-10T04:48:23;42.23;;;20.90;;
9080;SDS011;13509;50.760;6.080;2022-12-10T04:50:51;35.77;;;18.17;;
9080;SDS011;13509;50.760;6.080;2022-12-10T04:53:19;37.10;;;17.87;;
9080;SDS011;13509;50.760;6.080;2022-12-10T04:55:49;36.43;;;17.30;;
9080;SDS011;13509;50.760;6.080;2022-12-10T04:58:18;35.50;;;17.30;;
9080;SDS011;13509;50.760;6.080;2022-12-10T05:00:46;31.03;;;17.83;;
9080;SDS011;13509;50.760;6.080;2022-12-10T05:03:14;34.40;;;16.77;;
9080;SDS011;13509;50.760;6.080;2022-12-10T05:05:42;33.47;;;17.13;;
9080;SDS011;13509;50.760;6.080;2022-12-10T05:08:10;35.37;;;18.00;;
9080;SDS011;13509;50.760;6.080;2022-12-10T05:10:39;33.70;;;17.67;;
9080;SDS011;13509;50.760;6.080;2022-12-10T05:13:08;37.87;;;16.93;;
9080;SDS011;13509;50.760;6.080;2022-12-10T05:15:37;37.30;;;15.47;;
9080;SDS011;13509;50.760;6.080;2022-12-10T05:18:05;30.77;;;14.60;;
9080;SDS011;13509;50.760;6.080;2022-12-10T05:20:34;31.33;;;15.00;;
9080;SDS011;13509;50.760;6.080;2022-12-10T05:23:02;28.87;;;15.17;;
9080;SDS011;13509;50.760;6.080;2022-12-10T05:25:48;30.33;;;14.17;;
9080;SDS011;13509;50.760;6.080;2022-12-10T05:28:21;30.20;;;14.07;;
9080;SDS011;13509;50.760;6.080;2022-12-10T05:30:50;32.93;;;15.97;;
9080;SDS011;13509;50.760;6.080;2022-12-10T05:33:18;32.43;;;16.13;;
9080;SDS011;13509;50.760;6.080;2022-12-10T05:35:51;32.27;;;16.77;;
9080;SDS011;13509;50.760;6.080;2022-12-10T05:38:19;32.00;;;17.30;;
9080;SDS011;13509;50.760;6.080;2022-12-10T05:40:47;31.73;;;16.17;;
9080;SDS011;13509;50.760;6.080;2022-12-10T05:43:23;33.57;;;16.93;;
9080;SDS011;13509;50.760;6.080;2022-12-10T05:45:51;30.93;;;16.67;;
9080;SDS011;13509;50.760;6.080;2022-12-10T05:48:19;31.73;;;16.67;;
9080;SDS011;13509;50.760;6.080;2022-12-10T05:50:48;32.27;;;16.40;;
9080;SDS011;13509;50.760;6.080;2022-12-10T05:53:16;34.00;;;16.53;;
9080;SDS011;13509;50.760;6.080;2022-12-10T05:55:44;35.93;;;16.93;;
9080;SDS011;13509;50.760;6.080;2022-12-10T05:58:12;36.47;;;16.93;;
9080;SDS011;13509;50.760;6.080;2022-12-10T06:00:42;34.97;;;16.70;;
9080;SDS011;13509;50.760;6.080;2022-12-10T06:03:10;34.43;;;16.90;;
9080;SDS011;13509;50.760;6.080;2022-12-10T06:05:38;30.53;;;16.03;;
9080;SDS011;13509;50.760;6.080;2022-12-10T06:08:07;34.57;;;16.27;;
9080;SDS011;13509;50.760;6.080;2022-12-10T06:10:35;34.70;;;17.10;;
9080;SDS011;13509;50.760;6.080;2022-12-10T06:13:03;34.73;;;17.33;;
9080;SDS011;13509;50.760;6.080;2022-12-10T06:15:32;34.77;;;17.07;;
9080;SDS011;13509;50.760;6.080;2022-12-10T06:18:02;31.50;;;15.93;;
9080;SDS011;13509;50.760;6.080;2022-12-10T06:20:30;35.87;;;17.70;;
9080;SDS011;13509;50.760;6.080;2022-12-10T06:22:58;35.80;;;17.23;;
9080;SDS011;13509;50.760;6.080;2022-12-10T06:25:27;36.30;;;16.33;;
9080;SDS011;13509;50.760;6.080;2022-12-10T06:27:55;32.63;;;15.77;;
9080;SDS011;13509;50.760;6.080;2022-12-10T06:30:23;29.60;;;15.17;;
9080;SDS011;13509;50.760;6.080;2022-12-10T06:32:51;33.20;;;16.93;;
9080;SDS011;13509;50.760;6.080;2022-12-10T06:35:21;34.80;;;16.93;;
9080;SDS011;13509;50.760;6.080;2022-12-10T06:37:49;35.33;;;16.93;;
9080;SDS011;13509;50.760;6.080;2022-12-10T06:40:17;29.93;;;16.10;;
9080;SDS011;13509;50.760;6.080;2022-12-10T06:42:46;39.50;;;17.70;;
9080;SDS011;13509;50.760;6.080;2022-12-10T06:45:14;37.63;;;18.40;;
9080;SDS011;13509;50.760;6.080;2022-12-10T06:47:42;37.27;;;18.60;;
9080;SDS011;13509;50.760;6.080;2022-12-10T06:50:10;43.50;;;19.83;;
9080;SDS011;13509;50.760;6.080;2022-12-10T06:52:40;40.70;;;18.90;;
9080;SDS011;13509;50.760;6.080;2022-12-10T06:55:08;46.40;;;18.97;;
9080;SDS011;13509;50.760;6.080;2022-12-10T06:57:36;45.50;;;20.77;;
9080;SDS011;13509;50.760;6.080;2022-12-10T07:00:05;42.03;;;19.53;;
9080;SDS011;13509;50.760;6.080;2022-12-10T07:02:33;39.20;;;19.37;;
9080;SDS011;13509;50.760;6.080;2022-12-10T07:05:02;46.67;;;22.13;;
9080;SDS011;13509;50.760;6.080;2022-12-10T07:07:30;42.37;;;20.13;;
9080;SDS011;13509;50.760;6.080;2022-12-10T07:09:59;40.97;;;19.33;;
9080;SDS011;13509;50.760;6.080;2022-12-10T07:12:28;40.63;;;18.80;;
9080;SDS011;13509;50.760;6.080;2022-12-10T07:14:56;43.23;;;20.17;;
9080;SDS011;13509;50.760;6.080;2022-12-10T07:17:24;43.77;;;18.57;;
9080;SDS011;13509;50.760;6.080;2022-12-10T07:19:53;40.03;;;19.70;;
9080;SDS011;13509;50.760;6.080;2022-12-10T07:22:21;36.47;;;18.50;;
9080;SDS011;13509;50.760;6.080;2022-12-10T07:24:49;41.70;;;18.93;;
9080;SDS011;13509;50.760;6.080;2022-12-10T07:27:19;36.80;;;18.63;;
9080;SDS011;13509;50.760;6.080;2022-12-10T07:29:47;37.43;;;18.37;;
9080;SDS011;13509;50.760;6.080;2022-12-10T07:32:15;40.70;;;18.93;;
9080;SDS011;13509;50.760;6.080;2022-12-10T07:34:43;40.63;;;18.77;;
9080;SDS011;13509;50.760;6.080;2022-12-10T07:37:11;39.97;;;18.40;;
9080;SDS011;13509;50.760;6.080;2022-12-10T07:39:40;35.83;;;17.03;;
9080;SDS011;13509;50.760;6.080;2022-12-10T07:42:09;37.17;;;17.20;;
9080;SDS011;13509;50.760;6.080;2022-12-10T07:44:38;35.73;;;18.30;;
9080;SDS011;13509;50.760;6.080;2022-12-10T07:47:14;34.77;;;16.37;;
9080;SDS011;13509;50.760;6.080;2022-12-10T07:49:42;31.20;;;16.97;;
9080;SDS011;13509;50.760;6.080;2022-12-10T07:52:10;33.43;;;17.17;;
9080;SDS011;13509;50.760;6.080;2022-12-10T07:54:38;32.43;;;16.00;;
9080;SDS011;13509;50.760;6.080;2022-12-10T07:57:06;34.73;;;16.93;;
9080;SDS011;13509;50.760;6.080;2022-12-10T07:59:35;30.07;;;15.27;;
9080;SDS011;13509;50.760;6.080;2022-12-10T08:02:04;30.60;;;14.50;;
9080;SDS011;13509;50.760;6.080;2022-12-10T08:04:34;33.37;;;16.37;;
9080;SDS011;13509;50.760;6.080;2022-12-10T08:07:03;31.10;;;16.23;;
9080;SDS011;13509;50.760;6.080;2022-12-10T08:09:33;29.47;;;16.03;;
9080;SDS011;13509;50.760;6.080;2022-12-10T08:12:01;31.47;;;15.70;;
9080;SDS011;13509;50.760;6.080;2022-12-10T08:14:29;31.30;;;15.47;;
9080;SDS011;13509;50.760;6.080;2022-12-10T08:16:58;31.80;;;15.70;;
9080;SDS011;13509;50.760;6.080;2022-12-10T08:19:27;30.70;;;16.40;;
9080;SDS011;13509;50.760;6.080;2022-12-10T08:21:57;33.17;;;15.83;;
9080;SDS011;13509;50.760;6.080;2022-12-10T08:24:25;30.70;;;15.53;;
9080;SDS011;13509;50.760;6.080;2022-12-10T08:26:53;28.23;;;14.93;;
9080;SDS011;13509;50.760;6.080;2022-12-10T08:29:21;34.67;;;15.53;;
9080;SDS011;13509;50.760;6.080;2022-12-10T08:31:50;29.20;;;14.43;;
9080;SDS011;13509;50.760;6.080;2022-12-10T08:34:18;27.30;;;13.73;;
9080;SDS011;13509;50.760;6.080;2022-12-10T08:36:48;28.43;;;15.33;;
9080;SDS011;13509;50.760;6.080;2022-12-10T08:39:16;29.93;;;14.43;;
9080;SDS011;13509;50.760;6.080;2022-12-10T08:41:44;28.57;;;14.13;;
9080;SDS011;13509;50.760;6.080;2022-12-10T08:44:13;28.30;;;14.27;;
9080;SDS011;13509;50.760;6.080;2022-12-10T08:46:41;26.57;;;14.17;;
9080;SDS011;13509;50.760;6.080;2022-12-10T08:49:09;23.10;;;13.07;;
9080;SDS011;13509;50.760;6.080;2022-12-10T08:51:37;24.60;;;12.83;;
9080;SDS011;13509;50.760;6.080;2022-12-10T08:54:07;29.37;;;14.87;;
9080;SDS011;13509;50.760;6.080;2022-12-10T08:56:35;25.07;;;13.93;;
9080;SDS011;13509;50.760;6.080;2022-12-10T08:59:05;23.77;;;12.67;;
9080;SDS011;13509;50.760;6.080;2022-12-10T09:01:33;22.50;;;12.53;;
9080;SDS011;13509;50.760;6.080;2022-12-10T09:04:01;27.10;;;12.80;;
9080;SDS011;13509;50.760;6.080;2022-12-10T09:06:29;24.97;;;12.63;;
9080;SDS011;13509;50.760;6.080;2022-12-10T09:08:58;25.83;;;12.73;;
9080;SDS011;13509;50.760;6.080;2022-12-10T09:11:28;24.17;;;13.40;;
9080;SDS011;13509;50.760;6.080;2022-12-10T09:13:56;23.87;;;12.77;;
9080;SDS011;13509;50.760;6.080;2022-12-10T09:16:27;25.03;;;13.53;;
9080;SDS011;13509;50.760;6.080;2022-12-10T09:18:56;26.70;;;14.83;;
9080;SDS011;13509;50.760;6.080;2022-12-10T09:21:24;23.67;;;13.50;;
9080;SDS011;13509;50.760;6.080;2022-12-10T09:23:52;25.27;;;12.93;;
9080;SDS011;13509;50.760;6.080;2022-12-10T09:26:21;23.57;;;12.57;;
9080;SDS011;13509;50.760;6.080;2022-12-10T09:28:50;20.97;;;11.93;;
9080;SDS011;13509;50.760;6.080;2022-12-10T09:31:19;21.67;;;12.30;;
9080;SDS011;13509;50.760;6.080;2022-12-10T09:33:48;18.90;;;11.87;;
9080;SDS011;13509;50.760;6.080;2022-12-10T09:36:17;21.80;;;12.50;;
9080;SDS011;13509;50.760;6.080;2022-12-10T09:38:45;19.77;;;11.87;;
9080;SDS011;13509;50.760;6.080;2022-12-10T09:41:18;22.20;;;12.07;;
9080;SDS011;13509;50.760;6.080;2022-12-10T09:43:55;20.70;;;11.80;;
9080;SDS011;13509;50.760;6.080;2022-12-10T09:46:39;20.10;;;11.90;;
9080;SDS011;13509;50.760;6.080;2022-12-10T09:49:11;22.77;;;12.90;;
9080;SDS011;13509;50.760;6.080;2022-12-10T09:51:41;23.20;;;12.80;;
9080;SDS011;13509;50.760;6.080;2022-12-10T09:54:12;22.67;;;12.03;;
9080;SDS011;13509;50.760;6.080;2022-12-10T09:56:43;20.00;;;11.97;;
9080;SDS011;13509;50.760;6.080;2022-12-10T09:59:15;22.80;;;12.93;;
9080;SDS011;13509;50.760;6.080;2022-12-10T10:01:45;22.83;;;12.60;;
9080;SDS011;13509;50.760;6.080;2022-12-10T10:04:14;22.23;;;13.00;;
9080;SDS011;13509;50.760;6.080;2022-12-10T10:06:43;22.93;;;12.30;;
9080;SDS011;13509;50.760;6.080;2022-12-10T10:09:11;19.43;;;11.03;;
9080;SDS011;13509;50.760;6.080;2022-12-10T10:11:41;19.07;;;11.13;;
9080;SDS011;13509;50.760;6.080;2022-12-10T10:14:10;21.03;;;11.13;;
9080;SDS011;13509;50.760;6.080;2022-12-10T10:16:42;19.93;;;11.20;;
9080;SDS011;13509;50.760;6.080;2022-12-10T10:19:13;22.50;;;11.17;;
9080;SDS011;13509;50.760;6.080;2022-12-10T10:21:42;23.27;;;11.30;;
9080;SDS011;13509;50.760;6.080;2022-12-10T10:24:12;21.27;;;11.00;;
9080;SDS011;13509;50.760;6.080;2022-12-10T10:26:41;26.53;;;12.73;;
9080;SDS011;13509;50.760;6.080;2022-12-10T10:29:11;21.77;;;12.07;;
9080;SDS011;13509;50.760;6.080;2022-12-10T10:31:40;23.47;;;11.77;;
9080;SDS011;13509;50.760;6.080;2022-12-10T10:34:13;21.97;;;11.37;;
9080;SDS011;13509;50.760;6.080;2022-12-10T10:36:42;21.50;;;11.27;;
9080;SDS011;13509;50.760;6.080;2022-12-10T10:39:18;22.37;;;11.43;;
9080;SDS011;13509;50.760;6.080;2022-12-10T10:41:52;21.43;;;12.17;;
9080;SDS011;13509;50.760;6.080;2022-12-10T10:44:25;22.80;;;12.23;;
9080;SDS011;13509;50.760;6.080;2022-12-10T10:46:54;22.60;;;11.13;;
9080;SDS011;13509;50.760;6.080;2022-12-10T10:49:25;22.40;;;11.73;;
9080;SDS011;13509;50.760;6.080;2022-12-10T10:51:57;24.33;;;12.73;;
9080;SDS011;13509;50.760;6.080;2022-12-10T10:54:33;24.97;;;12.70;;
9080;SDS011;13509;50.760;6.080;2022-12-10T10:57:02;23.60;;;11.60;;
9080;SDS011;13509;50.760;6.080;2022-12-10T10:59:32;23.20;;;12.17;;
9080;SDS011;13509;50.760;6.080;2022-12-10T11:02:02;24.50;;;12.77;;
9080;SDS011;13509;50.760;6.080;2022-12-10T11:04:38;25.53;;;12.93;;
9080;SDS011;13509;50.760;6.080;2022-12-10T11:07:14;23.40;;;11.53;;
9080;SDS011;13509;50.760;6.080;2022-12-10T11:09:43;23.70;;;11.90;;
9080;SDS011;13509;50.760;6.080;2022-12-10T11:12:21;24.87;;;12.20;;
9080;SDS011;13509;50.760;6.080;2022-12-10T11:14:51;24.33;;;12.23;;
9080;SDS011;13509;50.760;6.080;2022-12-10T11:17:19;26.90;;;12.50;;
9080;SDS011;13509;50.760;6.080;2022-12-10T11:19:55;30.40;;;13.17;;
9080;SDS011;13509;50.760;6.080;2022-12-10T11:22:24;30.90;;;13.37;;
9080;SDS011;13509;50.760;6.080;2022-12-10T11:24:52;28.17;;;13.23;;
9080;SDS011;13509;50.760;6.080;2022-12-10T11:27:25;30.03;;;14.50;;
9080;SDS011;13509;50.760;6.080;2022-12-10T11:29:55;29.07;;;14.43;;
9080;SDS011;13509;50.760;6.080;2022-12-10T11:32:30;31.37;;;14.33;;
9080;SDS011;13509;50.760;6.080;2022-12-10T11:35:08;34.57;;;16.37;;
9080;SDS011;13509;50.760;6.080;2022-12-10T11:37:38;34.90;;;16.23;;
9080;SDS011;13509;50.760;6.080;2022-12-10T11:42:59;33.30;;;16.83;;
9080;SDS011;13509;50.760;6.080;2022-12-10T11:45:30;33.50;;;15.47;;
9080;SDS011;13509;50.760;6.080;2022-12-10T11:48:04;38.83;;;17.27;;
9080;SDS011;13509;50.760;6.080;2022-12-10T11:50:38;37.60;;;17.30;;
9080;SDS011;13509;50.760;6.080;2022-12-10T11:53:13;37.77;;;16.43;;
9080;SDS011;13509;50.760;6.080;2022-12-10T11:55:46;36.50;;;16.13;;
9080;SDS011;13509;50.760;6.080;2022-12-10T11:58:20;35.37;;;15.90;;
9080;SDS011;13509;50.760;6.080;2022-12-10T12:00:52;36.53;;;16.50;;
9080;SDS011;13509;50.760;6.080;2022-12-10T12:03:35;35.50;;;15.20;;
9080;SDS011;13509;50.760;6.080;2022-12-10T12:06:15;34.37;;;16.23;;
9080;SDS011;13509;50.760;6.080;2022-12-10T12:08:46;34.10;;;15.57;;
9080;SDS011;13509;50.760;6.080;2022-12-10T12:11:21;36.83;;;15.77;;
9080;SDS011;13509;50.760;6.080;2022-12-10T12:13:53;38.07;;;16.97;;
9080;SDS011;13509;50.760;6.080;2022-12-10T12:16:23;41.53;;;18.20;;
9080;SDS011;13509;50.760;6.080;2022-12-10T12:18:55;39.00;;;17.60;;
9080;SDS011;13509;50.760;6.080;2022-12-10T12:21:26;47.17;;;18.60;;
9080;SDS011;13509;50.760;6.080;2022-12-10T12:23:56;38.20;;;18.20;;
9080;SDS011;13509;50.760;6.080;2022-12-10T12:26:31;37.23;;;17.93;;
9080;SDS011;13509;50.760;6.080;2022-12-10T12:29:02;40.73;;;17.23;;
9080;SDS011;13509;50.760;6.080;2022-12-10T12:31:34;35.53;;;16.47;;
9080;SDS011;13509;50.760;6.080;2022-12-10T12:34:05;39.23;;;19.53;;
9080;SDS011;13509;50.760;6.080;2022-12-10T12:36:34;31.47;;;15.90;;
9080;SDS011;13509;50.760;6.080;2022-12-10T12:39:05;38.70;;;18.30;;
9080;SDS011;13509;50.760;6.080;2022-12-10T12:41:40;37.53;;;16.97;;
9080;SDS011;13509;50.760;6.080;2022-12-10T12:44:09;43.80;;;18.63;;
9080;SDS011;13509;50.760;6.080;2022-12-10T12:46:40;32.30;;;15.17;;
9080;SDS011;13509;50.760;6.080;2022-12-10T12:49:10;37.53;;;16.70;;
9080;SDS011;13509;50.760;6.080;2022-12-10T12:51:43;34.07;;;16.57;;
9080;SDS011;13509;50.760;6.080;2022-12-10T12:54:13;43.20;;;19.33;;
9080;SDS011;13509;50.760;6.080;2022-12-10T12:56:55;40.60;;;17.13;;
9080;SDS011;13509;50.760;6.080;2022-12-10T12:59:30;37.47;;;17.83;;
9080;SDS011;13509;50.760;6.080;2022-12-10T13:02:06;36.20;;;16.67;;
9080;SDS011;13509;50.760;6.080;2022-12-10T13:04:39;34.23;;;16.23;;
9080;SDS011;13509;50.760;6.080;2022-12-10T13:07:27;36.60;;;17.27;;
9080;SDS011;13509;50.760;6.080;2022-12-10T13:10:08;37.10;;;16.73;;
9080;SDS011;13509;50.760;6.080;2022-12-10T13:12:45;38.13;;;17.40;;
9080;SDS011;13509;50.760;6.080;2022-12-10T13:15:16;38.33;;;17.60;;
9080;SDS011;13509;50.760;6.080;2022-12-10T13:18:03;39.40;;;16.37;;
9080;SDS011;13509;50.760;6.080;2022-12-10T13:20:32;40.23;;;18.27;;
9080;SDS011;13509;50.760;6.080;2022-12-10T13:23:03;43.50;;;18.17;;
9080;SDS011;13509;50.760;6.080;2022-12-10T13:25:39;38.27;;;16.23;;
9080;SDS011;13509;50.760;6.080;2022-12-10T13:28:21;37.47;;;16.30;;
9080;SDS011;13509;50.760;6.080;2022-12-10T13:33:52;43.37;;;17.47;;
9080;SDS011;13509;50.760;6.080;2022-12-10T13:36:21;40.80;;;18.13;;
9080;SDS011;13509;50.760;6.080;2022-12-10T13:39:12;41.57;;;18.87;;
9080;SDS011;13509;50.760;6.080;2022-12-10T13:44:47;41.80;;;17.93;;
9080;SDS011;13509;50.760;6.080;2022-12-10T13:47:23;43.20;;;19.07;;
9080;SDS011;13509;50.760;6.080;2022-12-10T13:49:53;39.77;;;17.63;;
9080;SDS011;13509;50.760;6.080;2022-12-10T13:52:23;42.57;;;18.47;;
9080;SDS011;13509;50.760;6.080;2022-12-10T13:55:07;40.33;;;17.87;;
9080;SDS011;13509;50.760;6.080;2022-12-10T13:57:53;39.93;;;17.97;;
9080;SDS011;13509;50.760;6.080;2022-12-10T14:00:29;40.40;;;18.00;;
9080;SDS011;13509;50.760;6.080;2022-12-10T14:03:03;37.87;;;18.33;;
9080;SDS011;13509;50.760;6.080;2022-12-10T14:05:51;37.47;;;16.40;;
9080;SDS011;13509;50.760;6.080;2022-12-10T14:08:23;42.50;;;17.70;;
9080;SDS011;13509;50.760;6.080;2022-12-10T14:10:55;37.37;;;17.00;;
9080;SDS011;13509;50.760;6.080;2022-12-10T14:13:26;43.50;;;17.80;;
9080;SDS011;13509;50.760;6.080;2022-12-10T14:15:58;38.70;;;17.10;;
9080;SDS011;13509;50.760;6.080;2022-12-10T14:18:28;38.60;;;16.97;;
9080;SDS011;13509;50.760;6.080;2022-12-10T14:20:56;36.43;;;16.53;;
9080;SDS011;13509;50.760;6.080;2022-12-10T14:23:26;42.00;;;17.77;;
9080;SDS011;13509;50.760;6.080;2022-12-10T14:26:05;34.93;;;16.10;;
9080;SDS011;13509;50.760;6.080;2022-12-10T14:28:37;44.60;;;17.77;;
9080;SDS011;13509;50.760;6.080;2022-12-10T14:31:07;38.23;;;16.30;;
9080;SDS011;13509;50.760;6.080;2022-12-10T14:33:38;39.80;;;17.27;;
9080;SDS011;13509;50.760;6.080;2022-12-10T14:36:06;41.73;;;16.63;;
9080;SDS011;13509;50.760;6.080;2022-12-10T14:38:34;38.37;;;16.30;;
9080;SDS011;13509;50.760;6.080;2022-12-10T14:41:02;40.23;;;17.60;;
9080;SDS011;13509;50.760;6.080;2022-12-10T14:43:32;40.53;;;17.03;;
9080;SDS011;13509;50.760;6.080;2022-12-10T14:46:04;36.17;;;16.90;;
9080;SDS011;13509;50.760;6.080;2022-12-10T14:48:38;42.93;;;18.90;;
9080;SDS011;13509;50.760;6.080;2022-12-10T14:51:09;39.90;;;16.67;;
9080;SDS011;13509;50.760;6.080;2022-12-10T14:53:40;47.97;;;18.90;;
9080;SDS011;13509;50.760;6.080;2022-12-10T14:56:08;38.27;;;17.07;;
9080;SDS011;13509;50.760;6.080;2022-12-10T14:58:42;40.90;;;18.40;;
9080;SDS011;13509;50.760;6.080;2022-12-10T15:01:12;42.77;;;18.40;;
9080;SDS011;13509;50.760;6.080;2022-12-10T15:03:43;46.13;;;18.17;;